TA17 weather

Live Oak Ranch Airport
Brenham, Texas, United States

Public forecast

Using degrees Fahrenheit for public forecast. Weather courtesy of forecast.io.

METAR (pilot weather report)

Closest report is Brenham Municipal Airport, 3.6 nm (6.7 km) ENE. Retrieved 2019/09/23 18:35 UTC (3 minutes ago):

K11R 231835Z AUTO 15005KT 10SM CLR 33/22 A3002 RMK AO2 LTG DSNT S T03340222

TAF (pilot weather forecast)

Closest forecast is Easterwood Field, 24.4 nm (45.1 km) N. Retrieved 2019/09/23 18:24 UTC (14 minutes ago):

TAF KCLL 231723Z 2318/2418 16007KT P6SM SCT045 FM240100 15006KT P6SM SCT250 FM241000 00000KT P6SM BKN022 FM241200 00000KT P6SM BKN014 FM241500 18006KT P6SM FEW021 SCT023